createdAt,value
2023-01-23T00:04:45.598Z,2.90
2023-01-23T00:09:48.524Z,3.00
2023-01-23T00:14:51.371Z,2.60
2023-01-23T00:19:56.690Z,2.10
2023-01-23T00:24:59.564Z,2.30
2023-01-23T00:30:02.446Z,2.40
2023-01-23T00:35:07.564Z,2.50
2023-01-23T00:40:11.896Z,2.50
2023-01-23T00:45:14.720Z,2.50
2023-01-23T00:50:19.593Z,2.60
2023-01-23T00:55:23.280Z,2.60
2023-01-23T01:00:26.527Z,2.70
2023-01-23T01:05:30.865Z,2.70
2023-01-23T01:10:34.120Z,2.60
2023-01-23T01:15:37.306Z,2.50
2023-01-23T01:20:44.261Z,2.50
2023-01-23T01:25:47.461Z,2.40
2023-01-23T01:30:50.624Z,2.20
2023-01-23T01:35:56.555Z,2.20
2023-01-23T01:40:59.421Z,2.20
2023-01-23T01:46:08.274Z,2.40
2023-01-23T01:51:18.428Z,2.40
2023-01-23T01:56:21.801Z,2.50
2023-01-23T02:01:26.441Z,2.50
2023-01-23T02:06:30.909Z,2.50
2023-01-23T02:11:35.746Z,2.50
2023-01-23T02:16:43.700Z,2.60
2023-01-23T02:21:51.442Z,2.70
2023-01-23T02:26:55.682Z,2.70
2023-01-23T02:32:02.803Z,2.80
2023-01-23T02:37:07.885Z,2.80
2023-01-23T02:42:12.646Z,2.80
2023-01-23T02:47:23.256Z,2.70
2023-01-23T02:52:26.264Z,2.50
2023-01-23T02:57:30.518Z,2.60
2023-01-23T03:02:33.478Z,2.70
2023-01-23T03:07:36.839Z,2.80
2023-01-23T03:12:43.395Z,2.60
2023-01-23T03:17:46.577Z,2.60
2023-01-23T03:22:49.900Z,2.20
2023-01-23T03:27:54.095Z,2.00
2023-01-23T03:32:57.176Z,2.00
2023-01-23T03:38:00.357Z,2.10
2023-01-23T03:43:05.296Z,2.10
2023-01-23T03:48:09.989Z,2.00
2023-01-23T03:53:13.227Z,1.90
2023-01-23T03:58:17.723Z,1.80
2023-01-23T04:03:22.113Z,1.80
2023-01-23T04:08:25.007Z,1.80
2023-01-23T04:13:31.465Z,1.90
2023-01-23T04:18:35.479Z,2.00
2023-01-23T04:23:38.679Z,2.10
2023-01-23T04:28:43.102Z,2.20
2023-01-23T04:33:47.173Z,2.10
2023-01-23T04:38:50.587Z,2.20
2023-01-23T04:44:20.081Z,2.40
2023-01-23T04:49:43.345Z,2.60
2023-01-23T04:54:47.512Z,2.70
2023-01-23T04:59:51.992Z,2.60
2023-01-23T05:04:56.825Z,2.80
2023-01-23T05:09:59.939Z,3.10
2023-01-23T05:15:04.680Z,2.90
2023-01-23T05:20:13.124Z,3.00
2023-01-23T05:25:16.535Z,3.00
2023-01-23T05:30:24.312Z,2.80
2023-01-23T05:35:32.770Z,3.00
2023-01-23T05:40:36.500Z,3.30
2023-01-23T05:45:52.668Z,2.80
2023-01-23T05:51:08.669Z,2.40
2023-01-23T05:56:12.681Z,2.10
2023-01-23T06:01:39.679Z,2.00
2023-01-23T06:07:13.627Z,2.00
2023-01-23T06:12:16.757Z,2.10
2023-01-23T06:17:21.273Z,2.00
2023-01-23T06:22:24.255Z,2.00
2023-01-23T06:27:44.046Z,1.90
2023-01-23T06:32:48.392Z,2.00
2023-01-23T06:37:55.609Z,1.90
2023-01-23T06:43:01.551Z,2.00
2023-01-23T06:48:06.954Z,1.90
2023-01-23T06:53:10.402Z,1.90
2023-01-23T06:58:13.695Z,1.90
2023-01-23T07:03:18.486Z,1.90
2023-01-23T07:08:21.504Z,1.90
2023-01-23T07:13:31.431Z,2.00
2023-01-23T07:18:36.148Z,2.00
2023-01-23T07:23:43.158Z,2.10
2023-01-23T07:28:46.025Z,2.30
2023-01-23T07:33:50.225Z,2.30
2023-01-23T07:38:53.129Z,2.30
2023-01-23T07:43:55.981Z,2.30
2023-01-23T07:49:00.197Z,2.50
2023-01-23T07:54:03.065Z,2.80
2023-01-23T07:59:05.978Z,2.70
2023-01-23T08:04:10.261Z,2.40
2023-01-23T08:09:28.391Z,2.60
2023-01-23T08:14:31.524Z,2.50
2023-01-23T08:19:35.786Z,2.30
2023-01-23T08:24:38.839Z,2.10
2023-01-23T08:29:41.780Z,2.10
2023-01-23T08:34:45.985Z,2.20
2023-01-23T08:39:48.902Z,2.30
2023-01-23T08:44:51.765Z,2.20
2023-01-23T08:49:55.972Z,2.30
2023-01-23T08:54:58.811Z,2.20
2023-01-23T09:00:01.703Z,2.20
2023-01-23T09:05:08.432Z,2.20
2023-01-23T09:10:13.641Z,2.10
2023-01-23T09:15:17.316Z,2.10
2023-01-23T09:20:21.768Z,2.20
2023-01-23T09:25:24.799Z,2.20
2023-01-23T09:30:27.708Z,2.30
2023-01-23T09:35:32.292Z,2.20
2023-01-23T09:40:37.868Z,2.40
2023-01-23T09:45:44.726Z,2.30
2023-01-23T09:50:55.834Z,2.40
2023-01-23T09:56:03.108Z,2.40
2023-01-23T10:01:07.778Z,2.40
2023-01-23T10:06:21.784Z,2.50
2023-01-23T10:11:34.702Z,2.60
2023-01-23T10:16:54.170Z,2.60
2023-01-23T10:22:02.713Z,2.70
2023-01-23T10:27:18.948Z,2.70
2023-01-23T10:32:27.500Z,2.60
2023-01-23T10:37:44.113Z,2.60
2023-01-23T10:42:46.980Z,2.60
2023-01-23T10:47:55.083Z,2.60
2023-01-23T10:53:07.458Z,2.80
2023-01-23T10:58:27.122Z,2.80
2023-01-23T11:03:33.692Z,2.90
2023-01-23T11:08:40.433Z,2.90
2023-01-23T11:13:44.718Z,3.00
2023-01-23T11:18:54.036Z,3.10
2023-01-23T11:24:11.725Z,3.40
2023-01-23T11:29:22.949Z,3.40
2023-01-23T11:34:30.027Z,3.30
2023-01-23T11:39:45.993Z,3.40
2023-01-23T11:44:51.315Z,3.60
2023-01-23T11:50:12.431Z,3.60
2023-01-23T11:55:38.588Z,3.60
2023-01-23T12:00:46.538Z,3.70
2023-01-23T12:11:41.662Z,3.50
2023-01-23T12:17:08.804Z,3.40
2023-01-23T12:22:19.910Z,3.40
2023-01-23T12:27:35.083Z,3.40
2023-01-23T12:32:50.935Z,3.30
2023-01-23T12:38:09.764Z,3.30
2023-01-23T12:43:20.527Z,3.40
2023-01-23T12:48:28.537Z,3.50
2023-01-23T12:53:37.340Z,3.30
2023-01-23T12:58:46.404Z,3.30
2023-01-23T13:04:11.041Z,3.40
2023-01-23T13:09:23.199Z,3.40
2023-01-23T13:15:06.931Z,3.30
2023-01-23T13:20:48.314Z,3.40
2023-01-23T13:26:35.219Z,3.50
2023-01-23T13:31:46.682Z,3.60
2023-01-23T13:36:51.100Z,3.40
2023-01-23T13:42:45.114Z,3.40
2023-01-23T14:21:40.765Z,3.30
2023-01-23T14:26:50.501Z,3.30
2023-01-23T14:31:53.636Z,3.30
2023-01-23T14:37:03.884Z,3.40
2023-01-23T14:42:16.494Z,3.40
2023-01-23T14:47:34.073Z,3.50
2023-01-23T14:52:38.686Z,3.50
2023-01-23T14:57:42.092Z,3.40
2023-01-23T15:02:46.527Z,3.60
2023-01-23T15:07:54.857Z,3.50
2023-01-23T15:12:59.756Z,3.50
2023-01-23T15:18:05.696Z,3.50
2023-01-23T15:23:28.321Z,3.30
2023-01-23T15:28:32.187Z,3.10
2023-01-23T15:33:39.856Z,3.10
2023-01-23T15:38:48.954Z,3.10
2023-01-23T15:43:51.802Z,3.00
2023-01-23T15:48:55.082Z,3.00
2023-01-23T15:53:59.563Z,2.90
2023-01-23T15:59:03.163Z,2.90
2023-01-23T16:04:07.149Z,3.00
2023-01-23T16:09:26.882Z,2.90
2023-01-23T16:14:30.262Z,2.90
2023-01-23T16:19:33.176Z,2.90
2023-01-23T16:24:42.326Z,3.00
2023-01-23T16:29:45.733Z,3.00
2023-01-23T16:34:48.685Z,3.10
2023-01-23T16:39:52.995Z,3.20
2023-01-23T16:44:57.541Z,3.20
2023-01-23T16:50:00.437Z,3.20
2023-01-23T16:55:06.330Z,3.30
2023-01-23T17:00:19.065Z,3.30
2023-01-23T17:05:26.383Z,3.30
2023-01-23T17:10:45.375Z,3.30
2023-01-23T17:15:53.971Z,3.30
2023-01-23T17:20:57.897Z,3.30
2023-01-23T17:26:02.346Z,3.40
2023-01-23T17:31:05.969Z,3.40
2023-01-23T17:36:09.355Z,3.30
2023-01-23T17:41:15.710Z,3.40
2023-01-23T17:46:23.824Z,3.30
2023-01-23T17:51:27.460Z,3.30
2023-01-23T17:56:31.659Z,3.30
2023-01-23T18:01:34.511Z,3.30
2023-01-23T18:06:37.438Z,3.30
2023-01-23T18:11:49.731Z,3.40
2023-01-23T18:16:53.657Z,3.30
2023-01-23T18:21:58.686Z,3.30
2023-01-23T18:27:17.216Z,3.30
2023-01-23T18:32:45.972Z,3.30
2023-01-23T18:37:56.066Z,3.40
2023-01-23T18:43:11.513Z,3.40
2023-01-23T18:48:24.617Z,3.40
2023-01-23T18:53:44.175Z,3.40
2023-01-23T18:59:11.096Z,3.50
2023-01-23T19:04:16.260Z,3.40
2023-01-23T19:09:21.218Z,3.50
2023-01-23T19:14:41.823Z,3.40
2023-01-23T19:19:49.974Z,3.40
2023-01-23T19:24:53.541Z,3.40
2023-01-23T19:29:58.248Z,3.40
2023-01-23T19:35:13.476Z,3.30
2023-01-23T19:40:19.277Z,3.20
2023-01-23T19:45:23.851Z,3.30
2023-01-23T19:50:26.871Z,3.20
2023-01-23T19:55:31.548Z,3.20
2023-01-23T20:00:36.954Z,3.20
2023-01-23T20:05:39.957Z,3.20
2023-01-23T20:10:42.779Z,3.20
2023-01-23T20:15:47.899Z,3.20
2023-01-23T20:20:59.383Z,3.20
2023-01-23T20:26:02.806Z,3.20
2023-01-23T20:31:13.112Z,3.20
2023-01-23T20:36:16.762Z,3.20
2023-01-23T20:41:25.865Z,3.30
2023-01-23T20:46:30.190Z,3.20
2023-01-23T20:51:33.080Z,3.30
2023-01-23T20:56:35.997Z,3.40
2023-01-23T21:01:59.497Z,3.40
2023-01-23T21:07:03.309Z,3.30
2023-01-23T21:12:06.657Z,3.30
2023-01-23T21:17:11.351Z,3.30
2023-01-23T21:22:14.373Z,3.20
2023-01-23T21:27:19.864Z,3.20
2023-01-23T21:32:25.190Z,3.20
2023-01-23T21:37:28.150Z,3.20
2023-01-23T21:42:31.097Z,3.10
2023-01-23T21:47:35.296Z,3.10
2023-01-23T21:52:38.215Z,3.20
2023-01-23T21:57:41.191Z,3.10
2023-01-23T22:02:45.431Z,3.20
2023-01-23T22:07:48.445Z,3.30
2023-01-23T22:12:51.309Z,3.40
2023-01-23T22:17:55.496Z,3.40
2023-01-23T22:22:58.351Z,3.40
2023-01-23T22:28:01.230Z,3.40
2023-01-23T22:33:05.435Z,3.40
2023-01-23T22:38:08.830Z,3.40
2023-01-23T22:43:11.821Z,3.30
2023-01-23T22:48:16.014Z,3.40
2023-01-23T22:53:18.876Z,3.40
2023-01-23T22:58:21.749Z,3.50
2023-01-23T23:03:27.420Z,3.50
2023-01-23T23:08:30.508Z,3.60
2023-01-23T23:13:35.780Z,3.60
2023-01-23T23:18:40.119Z,3.70
2023-01-23T23:23:43.334Z,3.50
2023-01-23T23:28:46.413Z,3.50
2023-01-23T23:33:50.823Z,3.60
2023-01-23T23:38:53.677Z,3.60
2023-01-23T23:43:56.490Z,3.60
2023-01-23T23:49:00.692Z,3.60
2023-01-23T23:54:03.581Z,3.60
2023-01-23T23:59:06.463Z,3.60
